Terminal Aerodrome Forecast
Issued by NWS

Home | Current Version | Previous Version | Text Only | Print | Product List | Glossary On
Versions: 1 2 3 4 5 6 7 8 9 10 11 12 13 14 15 16 17 18 19 20 21 22
000
FTUS41 KBOX 121356 AAA
TAFBAF
TAF AMD
KBAF 121356Z 1214/1312 36005KT 1SM -SN BR OVC024
     FM121500 11004KT 3SM -RA BR OVC012
     FM121800 15005KT 3SM -RA BR OVC008
     FM130100 26006KT P6SM VCSH BKN020
     FM130200 28007KT P6SM BKN040
     FM130800 28009KT P6SM BKN035=

USA.gov is the U.S. government's official web portal to all federal, state and local government web resources and services.